Terminal Aerodrome Forecast
Issued by NWS

Home | Current Version | Previous Version | Text Only | Print | Product List | Glossary On
Versions: 1 2 3 4 5 6 7 8 9 10 11 12 13 14 15 16 17 18 19 20
000
FTUS41 KOKX 262300
TAFSWF
TAF
KSWF 262325Z 2700/2806 27006KT P6SM FEW250
     FM270500 VRB03KT P6SM FEW250
     FM271500 23004KT P6SM SCT250
     FM280100 21005KT P6SM FEW100 BKN250
      AMD NOT SKED=

USA.gov is the U.S. government's official web portal to all federal, state and local government web resources and services.